Time;durP1;ratioP1;P1;durP2;ratioP2;P2;SDS_P1;SDS_P2;PMS_P1;PMS_P2;Temp;Humidity;BMP_temperature;BMP_pressure;BME280_temperature;BME280_humidity;BME280_pressure;Samples;Min_cycle;Max_cycle;Signal;HPM_P1;HPM_P2
2021/06/09 18:11:51;;;;;;;2.57;2.47;;;;;;;;;;5084603;27;20725;-58
2021/06/09 18:14:16;;;;;;;2.80;2.20;;;;;;;;;;5080577;28;24437;-59
2021/06/09 18:16:41;;;;;;;3.17;2.67;;;;;;;;;;5081424;28;20177;-59
2021/06/09 18:19:06;;;;;;;2.38;2.28;;;;;;;;;;5080728;28;20546;-59
2021/06/09 18:21:31;;;;;;;3.17;2.93;;;;;;;;;;5080664;28;20182;-60
2021/06/09 18:23:57;;;;;;;3.17;2.97;;;;;;;;;;5081027;28;20174;-60
2021/06/09 18:26:23;;;;;;;3.60;3.40;;;;;;;;;;5081687;28;20188;-60
2021/06/09 18:28:48;;;;;;;2.77;2.57;;;;;;;;;;5080890;28;21306;-61
2021/06/09 18:31:13;;;;;;;3.90;3.60;;;;;;;;;;5079431;28;20279;-61
2021/06/09 18:33:38;;;;;;;2.70;2.60;;;;;;;;;;5080294;28;20174;-60
2021/06/09 18:36:04;;;;;;;3.40;3.20;;;;;;;;;;5080414;28;20174;-60
2021/06/09 18:38:32;;;;;;;3.30;3.10;;;;;;;;;;5081121;28;20567;-59
2021/06/09 18:40:57;;;;;;;2.90;2.70;;;;;;;;;;5081273;28;20261;-60
2021/06/09 18:43:23;;;;;;;3.30;3.10;;;;;;;;;;5079517;28;20678;-60
2021/06/09 18:45:48;;;;;;;3.00;2.80;;;;;;;;;;5079656;28;20183;-60
2021/06/09 18:48:13;;;;;;;3.07;2.87;;;;;;;;;;5080468;28;20188;-59
2021/06/09 18:50:39;;;;;;;3.80;3.60;;;;;;;;;;5080105;28;20214;-60
2021/06/09 18:53:05;;;;;;;3.30;3.10;;;;;;;;;;5079926;28;20182;-59
2021/06/09 18:55:32;;;;;;;3.27;3.07;;;;;;;;;;5080516;28;20182;-59
2021/06/09 18:57:57;;;;;;;3.60;3.40;;;;;;;;;;5080444;28;20642;-60
2021/06/09 19:00:27;;;;;;;3.00;2.80;;;;;;;;;;5079931;28;21044;-60
2021/06/09 19:02:52;;;;;;;4.90;3.87;;;;;;;;;;5079538;28;20269;-60
2021/06/09 19:05:18;;;;;;;4.70;4.40;;;;;;;;;;5079909;28;20608;-60
2021/06/09 19:07:44;;;;;;;3.97;3.73;;;;;;;;;;5079720;28;20183;-60
2021/06/09 19:10:10;;;;;;;4.10;3.80;;;;;;;;;;5079215;28;20316;-60
2021/06/09 19:12:36;;;;;;;4.40;4.00;;;;;;;;;;5079124;28;20607;-60
2021/06/09 19:15:03;;;;;;;4.37;4.07;;;;;;;;;;5079282;28;20605;-58
2021/06/09 19:17:29;;;;;;;4.67;4.27;;;;;;;;;;5079234;28;20186;-60
2021/06/09 19:19:54;;;;;;;4.80;3.97;;;;;;;;;;5079627;28;20631;-59
2021/06/09 19:22:20;;;;;;;3.83;3.53;;;;;;;;;;5071032;28;20178;-59
2021/06/09 19:24:45;;;;;;;4.00;3.60;;;;;;;;;;5066359;28;20682;-59
2021/06/09 19:27:10;;;;;;;3.90;3.60;;;;;;;;;;5065335;28;20186;-59
2021/06/09 19:29:36;;;;;;;3.40;3.20;;;;;;;;;;5064962;28;20696;-59
2021/06/09 19:32:01;;;;;;;5.73;3.80;;;;;;;;;;5065506;28;20780;-59
2021/06/09 19:34:26;;;;;;;5.03;3.50;;;;;;;;;;5066734;28;20172;-60
2021/06/09 19:36:52;;;;;;;3.93;3.60;;;;;;;;;;5065957;28;20179;-59
2021/06/09 19:39:17;;;;;;;4.60;3.93;;;;;;;;;;5064808;28;20171;-59
2021/06/09 19:41:42;;;;;;;4.40;4.10;;;;;;;;;;5066186;28;20175;-59
2021/06/09 19:44:08;;;;;;;3.97;3.57;;;;;;;;;;5065501;28;20171;-59
2021/06/09 19:46:33;;;;;;;4.23;3.83;;;;;;;;;;5064797;28;20179;-59
2021/06/09 19:48:58;;;;;;;5.27;3.77;;;;;;;;;;5063245;28;20182;-59
2021/06/09 19:51:23;;;;;;;3.80;3.60;;;;;;;;;;5065812;28;20195;-60
2021/06/09 19:53:49;;;;;;;4.00;3.70;;;;;;;;;;5063740;28;20271;-58
2021/06/09 19:56:15;;;;;;;4.57;4.17;;;;;;;;;;5065904;28;20652;-58
2021/06/09 19:58:41;;;;;;;4.10;3.80;;;;;;;;;;5065454;28;20176;-58
2021/06/09 20:01:07;;;;;;;4.00;3.70;;;;;;;;;;5065409;28;21188;-58
2021/06/09 20:03:32;;;;;;;3.97;3.67;;;;;;;;;;5064779;28;20669;-58
2021/06/09 20:05:57;;;;;;;3.80;3.60;;;;;;;;;;5065763;28;20167;-58
2021/06/09 20:08:22;;;;;;;4.00;3.70;;;;;;;;;;5064584;28;20580;-58
2021/06/09 20:10:48;;;;;;;4.25;3.95;;;;;;;;;;5065404;28;20235;-60
2021/06/09 20:13:13;;;;;;;4.43;4.03;;;;;;;;;;5066154;28;20606;-60
2021/06/09 20:15:38;;;;;;;3.97;3.67;;;;;;;;;;5065265;28;20290;-59
2021/06/09 20:18:03;;;;;;;4.60;4.20;;;;;;;;;;5064212;28;20202;-60
2021/06/09 20:20:28;;;;;;;5.13;3.70;;;;;;;;;;5064677;28;20183;-57
2021/06/09 20:22:57;;;;;;;3.95;3.65;;;;;;;;;;5065218;28;20376;-59
2021/06/09 20:27:29;;;;;;;3.80;3.50;;;;;;;;;;5066046;28;20259;-60
2021/06/09 20:28:11;;;;;;;3.90;3.60;;;;;;;;;;5062874;28;20593;-59
2021/06/09 20:30:36;;;;;;;4.40;4.10;;;;;;;;;;5064358;28;20648;-59
2021/06/09 20:33:01;;;;;;;4.40;3.73;;;;;;;;;;5064145;28;20220;-58
2021/06/09 20:35:27;;;;;;;4.15;3.85;;;;;;;;;;5065851;28;20185;-59
2021/06/09 20:37:52;;;;;;;4.40;4.10;;;;;;;;;;5066065;28;20190;-57
2021/06/09 20:40:17;;;;;;;4.80;4.27;;;;;;;;;;5068340;28;20183;-60
2021/06/09 20:42:44;;;;;;;4.50;3.97;;;;;;;;;;5068483;28;20185;-60
2021/06/09 20:45:10;;;;;;;4.40;4.00;;;;;;;;;;5067852;28;20629;-60
2021/06/09 20:47:36;;;;;;;3.93;3.63;;;;;;;;;;5068179;28;20608;-58
2021/06/09 20:50:06;;;;;;;4.47;4.17;;;;;;;;;;5068001;28;20263;-59
2021/06/09 20:52:32;;;;;;;4.40;4.10;;;;;;;;;;5067870;28;20596;-59
2021/06/09 20:54:57;;;;;;;4.93;4.63;;;;;;;;;;5067840;28;20615;-60
2021/06/09 20:57:22;;;;;;;4.57;4.23;;;;;;;;;;5067885;28;20226;-60
2021/06/09 20:59:47;;;;;;;4.90;4.50;;;;;;;;;;5067621;28;20657;-60
2021/06/09 21:02:12;;;;;;;4.55;4.15;;;;;;;;;;5063575;28;20179;-59
2021/06/09 21:04:39;;;;;;;4.73;4.43;;;;;;;;;;5064712;28;20218;-61
2021/06/09 21:07:05;;;;;;;5.40;5.00;;;;;;;;;;5067757;28;20190;-58
2021/06/09 21:09:30;;;;;;;5.67;5.17;;;;;;;;;;5066676;28;20697;-58
2021/06/09 21:11:56;;;;;;;5.43;5.03;;;;;;;;;;5067132;28;20168;-58
2021/06/09 21:14:21;;;;;;;5.17;4.77;;;;;;;;;;5067654;28;20257;-58
2021/06/09 21:16:46;;;;;;;5.87;5.40;;;;;;;;;;5067248;28;20171;-58
2021/06/09 21:19:11;;;;;;;6.40;5.80;;;;;;;;;;5067220;28;20225;-60
2021/06/09 21:21:37;;;;;;;6.37;5.87;;;;;;;;;;5066419;28;20610;-58
2021/06/09 21:24:02;;;;;;;8.37;5.80;;;;;;;;;;5067641;28;20209;-59
2021/06/09 21:26:27;;;;;;;6.53;6.03;;;;;;;;;;5067081;28;20696;-59
2021/06/09 21:28:52;;;;;;;5.90;5.50;;;;;;;;;;5058869;28;20261;-60
2021/06/09 21:31:18;;;;;;;5.50;5.15;;;;;;;;;;5062759;28;20255;-59
2021/06/09 21:33:43;;;;;;;6.50;5.90;;;;;;;;;;5067433;28;20174;-59
2021/06/09 21:36:08;;;;;;;6.40;5.90;;;;;;;;;;5067518;28;20174;-58
2021/06/09 21:38:33;;;;;;;6.80;6.20;;;;;;;;;;5066596;28;20170;-60
2021/06/09 21:40:58;;;;;;;5.90;5.50;;;;;;;;;;5067123;28;20189;-60
2021/06/09 21:43:23;;;;;;;6.63;6.18;;;;;;;;;;5066741;28;20537;-60
2021/06/09 21:45:49;;;;;;;5.90;5.50;;;;;;;;;;5066501;28;20173;-60
2021/06/09 21:48:14;;;;;;;5.83;5.33;;;;;;;;;;5065329;28;20170;-59
2021/06/09 21:50:39;;;;;;;4.80;4.50;;;;;;;;;;5066512;28;20590;-59
2021/06/09 21:53:05;;;;;;;5.50;5.10;;;;;;;;;;5066256;28;20601;-59
2021/06/09 21:55:30;;;;;;;4.73;4.33;;;;;;;;;;5066028;28;20174;-60
2021/06/09 21:57:55;;;;;;;4.50;4.20;;;;;;;;;;5066675;28;20173;-61
2021/06/09 22:00:22;;;;;;;4.70;4.30;;;;;;;;;;5066415;28;20436;-60
2021/06/09 22:02:47;;;;;;;4.30;4.00;;;;;;;;;;5066040;28;20673;-60
2021/06/09 22:05:12;;;;;;;4.33;4.03;;;;;;;;;;5063182;28;20588;-60
2021/06/09 22:07:39;;;;;;;4.50;4.10;;;;;;;;;;5066849;28;20176;-59
2021/06/09 22:10:06;;;;;;;4.30;3.90;;;;;;;;;;5066110;28;20233;-59
2021/06/09 22:12:32;;;;;;;5.67;5.27;;;;;;;;;;5066033;28;20676;-59
2021/06/09 22:14:57;;;;;;;4.50;4.10;;;;;;;;;;5064790;28;20654;-59
2021/06/09 22:17:22;;;;;;;4.95;4.32;;;;;;;;;;5066496;28;20176;-60
2021/06/09 22:19:47;;;;;;;4.20;3.90;;;;;;;;;;5065511;28;20184;-59
2021/06/09 22:22:12;;;;;;;4.43;4.13;;;;;;;;;;5066381;28;20753;-59
2021/06/09 22:24:37;;;;;;;4.40;4.10;;;;;;;;;;5067357;28;20174;-59
2021/06/09 22:27:03;;;;;;;8.05;4.05;;;;;;;;;;5066112;28;20211;-59
2021/06/09 22:29:28;;;;;;;5.10;4.70;;;;;;;;;;5067248;28;20183;-59
2021/06/09 22:31:53;;;;;;;4.90;4.50;;;;;;;;;;5066448;28;20662;-59
2021/06/09 22:34:18;;;;;;;4.28;4.00;;;;;;;;;;5067188;28;20252;-59
2021/06/09 22:36:43;;;;;;;4.63;4.32;;;;;;;;;;5065104;28;20202;-60
2021/06/09 22:39:10;;;;;;;4.67;4.37;;;;;;;;;;5066524;28;20202;-59
2021/06/09 22:41:35;;;;;;;4.80;4.40;;;;;;;;;;5066767;28;20194;-60
2021/06/09 22:44:01;;;;;;;5.00;4.70;;;;;;;;;;5066743;28;20616;-60
2021/06/09 22:46:26;;;;;;;5.37;5.07;;;;;;;;;;5066641;28;20825;-60
2021/06/09 22:48:51;;;;;;;4.93;4.63;;;;;;;;;;5066550;28;20183;-60
2021/06/09 22:51:16;;;;;;;6.00;5.50;;;;;;;;;;5066473;28;20571;-60
2021/06/09 22:53:41;;;;;;;6.03;5.57;;;;;;;;;;5066318;28;20168;-60
2021/06/09 22:56:06;;;;;;;6.00;5.47;;;;;;;;;;5066591;28;20181;-61
2021/06/09 22:58:32;;;;;;;5.33;4.93;;;;;;;;;;5070029;28;20704;-60
2021/06/09 23:00:57;;;;;;;6.07;5.67;;;;;;;;;;5070080;28;20182;-60
2021/06/09 23:03:22;;;;;;;5.60;5.20;;;;;;;;;;5069068;28;20432;-59
2021/06/09 23:05:48;;;;;;;7.93;4.80;;;;;;;;;;5069228;28;20393;-60
2021/06/09 23:08:13;;;;;;;5.00;4.60;;;;;;;;;;5069512;28;20178;-59
2021/06/09 23:10:38;;;;;;;5.05;4.65;;;;;;;;;;5069770;28;20658;-60
2021/06/09 23:13:04;;;;;;;5.27;4.67;;;;;;;;;;5069993;28;20170;-60
2021/06/09 23:15:29;;;;;;;5.50;4.83;;;;;;;;;;5069636;28;20660;-60
2021/06/09 23:17:56;;;;;;;5.45;5.05;;;;;;;;;;5070104;28;20185;-60
2021/06/09 23:20:21;;;;;;;5.57;5.17;;;;;;;;;;5070331;28;20261;-60
2021/06/09 23:22:46;;;;;;;5.20;4.80;;;;;;;;;;5069506;28;20670;-60
2021/06/09 23:25:13;;;;;;;4.80;4.50;;;;;;;;;;5070404;28;20265;-60
2021/06/09 23:27:38;;;;;;;6.10;5.53;;;;;;;;;;5069006;28;20184;-60
2021/06/09 23:30:04;;;;;;;6.30;5.80;;;;;;;;;;5069768;28;20636;-60
2021/06/09 23:32:30;;;;;;;5.83;5.43;;;;;;;;;;5069756;28;20194;-60
2021/06/09 23:34:55;;;;;;;5.70;5.20;;;;;;;;;;5070169;28;20713;-60
2021/06/09 23:37:20;;;;;;;5.53;5.13;;;;;;;;;;5068218;28;20236;-60
2021/06/09 23:39:45;;;;;;;5.90;5.50;;;;;;;;;;5069762;28;20175;-60
2021/06/09 23:42:10;;;;;;;4.97;4.57;;;;;;;;;;5068947;28;20263;-59
2021/06/09 23:44:35;;;;;;;5.30;4.90;;;;;;;;;;5068899;28;20230;-59
2021/06/09 23:47:02;;;;;;;4.80;4.50;;;;;;;;;;5068154;28;20181;-60
2021/06/09 23:49:36;;;;;;;4.70;4.40;;;;;;;;;;5069302;28;20179;-59
2021/06/09 23:54:46;;;;;;;5.17;4.87;;;;;;;;;;5069062;28;21106;-60
2021/06/09 23:57:11;;;;;;;4.37;4.17;;;;;;;;;;5069586;28;20598;-60
2021/06/09 23:59:37;;;;;;;5.40;4.97;;;;;;;;;;5068987;28;20183;-59
